Time;durP1;ratioP1;P1;durP2;ratioP2;P2;SDS_P1;SDS_P2;PMS_P1;PMS_P2;Temp;Humidity;BMP_temperature;BMP_pressure;BME280_temperature;BME280_humidity;BME280_pressure;Samples;Min_cycle;Max_cycle;Signal;HPM_P1;HPM_P2
2021/08/30 00:01:58;;;;;;;;;;;12.80;99.90;;;;;;5019864;28;19960;-75
2021/08/30 00:04:25;;;;;;;;;;;12.80;99.90;;;;;;5036173;28;20386;-75
2021/08/30 00:06:57;;;;;;;;;;;12.80;99.90;;;;;;5015841;28;20458;-75
2021/08/30 00:09:23;;;;;;;;;;;12.80;99.90;;;;;;5035443;28;19964;-74
2021/08/30 00:11:50;;;;;;;;;;;12.80;99.90;;;;;;5036122;28;19924;-74
2021/08/30 00:14:22;;;;;;;;;;;12.80;99.90;;;;;;5036885;28;19925;-74
2021/08/30 00:16:49;;;;;;;;;;;12.90;99.90;;;;;;5035567;28;19924;-75
2021/08/30 00:19:15;;;;;;;;;;;12.90;99.90;;;;;;5053725;28;20024;-75
2021/08/30 00:21:47;;;;;;;;;;;12.80;99.90;;;;;;5036692;28;20008;-75
2021/08/30 00:24:14;;;;;;;;;;;12.80;99.90;;;;;;5035748;28;19928;-75
2021/08/30 00:26:45;;;;;;;;;;;12.80;99.90;;;;;;5053211;28;19976;-75
2021/08/30 00:29:17;;;;;;;;;;;12.80;99.90;;;;;;5035587;28;19924;-74
2021/08/30 00:31:44;;;;;;;;;;;12.80;99.90;;;;;;5035982;28;20031;-75
2021/08/30 00:34:16;;;;;;;;;;;12.70;99.90;;;;;;5035159;28;20016;-76
2021/08/30 00:36:42;;;;;;;;;;;12.80;99.90;;;;;;5035116;28;19975;-75
2021/08/30 00:39:09;;;;;;;;;;;12.80;99.90;;;;;;5035448;28;20032;-74
2021/08/30 00:41:40;;;;;;;;;;;12.80;99.90;;;;;;5019836;28;20418;-75
2021/08/30 00:44:07;;;;;;;;;;;12.80;99.90;;;;;;5035447;28;20032;-75
2021/08/30 00:46:39;;;;;;;;;;;12.80;99.90;;;;;;5019292;28;19924;-75
2021/08/30 00:49:10;;;;;;;;;;;12.80;99.90;;;;;;5036114;28;19931;-75
2021/08/30 00:51:42;;;;;;;;;;;12.80;99.90;;;;;;5019691;28;19925;-74
2021/08/30 00:54:10;;;;;;;;;;;12.80;99.90;;;;;;5035312;28;20023;-75
2021/08/30 00:56:38;;;;;;;;;;;12.80;99.90;;;;;;5018510;28;20035;-75
2021/08/30 00:59:05;;;;;;;;;;;12.80;99.90;;;;;;5034918;28;20027;-75
2021/08/30 01:01:32;;;;;;;;;;;12.90;99.90;;;;;;5034843;28;19971;-75
2021/08/30 01:04:07;;;;;;;;;;;12.80;99.90;;;;;;5034516;28;20016;-75
2021/08/30 01:06:37;;;;;;;;;;;12.90;99.90;;;;;;5033236;28;20277;-76
2021/08/30 01:09:07;;;;;;;;;;;12.90;99.90;;;;;;5034517;28;19951;-75
2021/08/30 01:11:42;;;;;;;;;;;12.90;99.90;;;;;;5034520;28;20296;-75
2021/08/30 01:14:14;;;;;;;;;;;12.90;99.90;;;;;;5034517;28;20418;-76
2021/08/30 01:16:42;;;;;;;;;;;12.90;99.90;;;;;;5034231;28;19925;-75
2021/08/30 01:19:14;;;;;;;;;;;12.80;99.90;;;;;;5034190;28;20023;-75
2021/08/30 01:21:42;;;;;;;;;;;12.90;99.90;;;;;;5052295;28;19964;-75
2021/08/30 01:24:13;;;;;;;;;;;12.90;99.90;;;;;;5034900;28;20016;-76
2021/08/30 01:26:41;;;;;;;;;;;12.90;99.90;;;;;;5017851;28;20035;-75
2021/08/30 01:29:14;;;;;;;;;;;12.90;99.90;;;;;;5034569;28;19986;-76
2021/08/30 01:32:06;;;;;;;;;;;12.90;99.90;;;;;;5034809;28;19931;-75
2021/08/30 01:34:34;;;;;;;;;;;12.90;99.90;;;;;;5051962;28;20027;-75
2021/08/30 01:37:00;;;;;;;;;;;13.00;99.90;;;;;;5017424;28;20399;-75
2021/08/30 01:39:32;;;;;;;;;;;12.90;99.90;;;;;;5033839;28;19979;-75
2021/08/30 01:42:04;;;;;;;;;;;12.90;99.90;;;;;;5034027;28;19971;-75
2021/08/30 01:44:31;;;;;;;;;;;12.90;99.90;;;;;;5033053;28;20031;-75
2021/08/30 01:46:58;;;;;;;;;;;12.90;99.90;;;;;;5016830;28;19992;-75
2021/08/30 01:49:31;;;;;;;;;;;12.80;99.90;;;;;;5018628;28;19925;-75
2021/08/30 01:52:03;;;;;;;;;;;12.80;99.90;;;;;;5034434;28;20039;-75
2021/08/30 01:54:34;;;;;;;;;;;12.80;99.90;;;;;;5018538;28;19956;-75
2021/08/30 01:57:01;;;;;;;;;;;12.80;99.90;;;;;;5017295;28;20367;-75
2021/08/30 02:02:14;;;;;;;;;;;12.80;99.90;;;;;;5034004;28;19951;-75
2021/08/30 02:04:46;;;;;;;;;;;12.90;99.90;;;;;;5018260;28;19925;-75
2021/08/30 02:07:17;;;;;;;;;;;12.80;99.90;;;;;;5033419;28;19964;-75
2021/08/30 02:09:44;;;;;;;;;;;12.80;99.90;;;;;;5051785;28;19983;-75
2021/08/30 02:12:16;;;;;;;;;;;12.80;99.90;;;;;;5033942;28;20373;-75
2021/08/30 02:14:47;;;;;;;;;;;12.80;99.90;;;;;;5018150;28;19963;-75
2021/08/30 02:17:22;;;;;;;;;;;12.80;99.90;;;;;;5017584;28;19946;-75
2021/08/30 02:20:00;;;;;;;;;;;12.80;99.90;;;;;;5018171;28;20024;-75
2021/08/30 02:22:29;;;;;;;;;;;12.80;99.90;;;;;;5017398;28;20019;-75
2021/08/30 02:25:03;;;;;;;;;;;12.80;99.90;;;;;;5034628;28;20019;-76
2021/08/30 02:27:39;;;;;;;;;;;12.80;99.90;;;;;;5033644;28;19963;-75
2021/08/30 02:30:21;;;;;;;;;;;12.70;99.90;;;;;;5033766;28;19925;-75
2021/08/30 02:32:54;;;;;;;;;;;12.80;99.90;;;;;;5033664;28;20019;-75
2021/08/30 02:35:22;;;;;;;;;;;12.80;99.90;;;;;;5033329;28;20024;-75
2021/08/30 02:37:56;;;;;;;;;;;12.80;99.90;;;;;;5034500;28;19929;-75
2021/08/30 02:40:29;;;;;;;;;;;12.80;99.90;;;;;;5033436;28;19925;-75
2021/08/30 02:42:57;;;;;;;;;;;12.80;99.90;;;;;;5051471;28;20023;-75
2021/08/30 02:45:29;;;;;;;;;;;12.80;99.90;;;;;;5033100;28;19925;-75
2021/08/30 02:47:57;;;;;;;;;;;12.80;99.90;;;;;;5033482;28;20280;-75
2021/08/30 02:50:24;;;;;;;;;;;12.80;99.90;;;;;;5033631;28;20377;-75
2021/08/30 02:52:52;;;;;;;;;;;12.80;99.90;;;;;;5033541;28;20015;-75
2021/08/30 02:55:19;;;;;;;;;;;12.80;99.90;;;;;;5050912;28;19925;-75
2021/08/30 02:57:51;;;;;;;;;;;12.80;99.90;;;;;;5036030;28;19925;-75
2021/08/30 03:00:23;;;;;;;;;;;12.80;99.90;;;;;;5037727;28;19932;-74
2021/08/30 03:02:50;;;;;;;;;;;12.80;99.90;;;;;;5055259;28;20006;-74
2021/08/30 03:05:16;;;;;;;;;;;12.80;99.90;;;;;;5037105;28;20459;-74
2021/08/30 03:07:48;;;;;;;;;;;12.80;99.90;;;;;;5038055;28;19924;-73
2021/08/30 03:10:20;;;;;;;;;;;12.80;99.90;;;;;;5021515;28;19925;-74
2021/08/30 03:12:54;;;;;;;;;;;12.80;99.90;;;;;;5021437;28;19931;-74
2021/08/30 03:15:26;;;;;;;;;;;12.80;99.90;;;;;;5036612;28;20039;-74
2021/08/30 03:17:58;;;;;;;;;;;12.80;99.90;;;;;;5021369;28;19924;-74
2021/08/30 03:20:29;;;;;;;;;;;12.80;99.90;;;;;;5038070;28;20297;-74
2021/08/30 03:22:57;;;;;;;;;;;12.80;99.90;;;;;;5020597;28;20361;-74
2021/08/30 03:25:26;;;;;;;;;;;12.80;99.90;;;;;;5054394;28;20252;-74
2021/08/30 03:27:54;;;;;;;;;;;12.80;99.90;;;;;;5020423;28;19968;-74
2021/08/30 03:30:22;;;;;;;;;;;12.70;99.90;;;;;;5036868;28;20347;-74
2021/08/30 03:32:49;;;;;;;;;;;12.80;99.90;;;;;;5036916;28;20357;-75
2021/08/30 03:35:22;;;;;;;;;;;12.70;99.90;;;;;;5036204;28;20002;-75
2021/08/30 03:37:54;;;;;;;;;;;12.80;99.90;;;;;;5037610;28;19925;-75
2021/08/30 03:40:27;;;;;;;;;;;12.80;99.90;;;;;;5020957;28;20462;-75
2021/08/30 03:42:55;;;;;;;;;;;12.70;99.90;;;;;;5036898;28;20367;-74
2021/08/30 03:45:21;;;;;;;;;;;12.70;99.90;;;;;;5035986;28;20027;-75
2021/08/30 03:47:54;;;;;;;;;;;12.80;99.90;;;;;;5020882;28;19952;-75
2021/08/30 03:50:27;;;;;;;;;;;12.80;99.90;;;;;;5037082;28;19925;-75
2021/08/30 03:53:00;;;;;;;;;;;12.80;99.90;;;;;;5053877;28;19925;-74
2021/08/30 03:55:26;;;;;;;;;;;12.80;99.90;;;;;;5035406;28;20032;-75
2021/08/30 03:57:59;;;;;;;;;;;12.70;99.90;;;;;;5035863;28;19931;-75
2021/08/30 04:00:26;;;;;;;;;;;12.80;99.90;;;;;;5035648;28;19967;-75
2021/08/30 04:02:54;;;;;;;;;;;12.70;99.90;;;;;;5019401;28;20036;-75
2021/08/30 04:05:29;;;;;;;;;;;12.70;99.90;;;;;;5035398;28;20024;-75
2021/08/30 04:08:00;;;;;;;;;;;12.80;99.90;;;;;;5035522;28;20021;-74
2021/08/30 04:10:32;;;;;;;;;;;12.80;99.90;;;;;;5035526;28;19929;-75
2021/08/30 04:12:59;;;;;;;;;;;12.70;99.90;;;;;;5053611;28;20011;-74
2021/08/30 04:15:26;;;;;;;;;;;12.70;99.90;;;;;;5035109;28;19931;-74
2021/08/30 04:17:58;;;;;;;;;;;12.70;99.90;;;;;;5035574;28;20387;-74
2021/08/30 04:20:24;;;;;;;;;;;12.70;99.90;;;;;;5035320;28;20467;-74
2021/08/30 04:22:56;;;;;;;;;;;12.70;99.90;;;;;;5035329;28;20020;-74
2021/08/30 04:25:28;;;;;;;;;;;12.70;99.90;;;;;;5034893;28;20287;-74
2021/08/30 04:27:59;;;;;;;;;;;12.70;99.90;;;;;;5035039;28;20023;-74
2021/08/30 04:30:31;;;;;;;;;;;12.60;99.90;;;;;;5036367;28;19979;-74
2021/08/30 04:33:06;;;;;;;;;;;12.60;99.90;;;;;;5036763;28;19925;-75
2021/08/30 04:35:38;;;;;;;;;;;12.60;99.90;;;;;;5019658;28;19925;-74
2021/08/30 04:38:12;;;;;;;;;;;12.70;99.90;;;;;;5019838;28;20398;-74
2021/08/30 04:40:44;;;;;;;;;;;12.60;99.90;;;;;;5035485;28;20027;-73
2021/08/30 04:43:15;;;;;;;;;;;12.70;99.90;;;;;;5019808;28;19925;-74
2021/08/30 04:45:47;;;;;;;;;;;12.60;99.90;;;;;;5035014;28;20024;-74
2021/08/30 04:48:19;;;;;;;;;;;12.70;99.90;;;;;;5053422;28;19925;-74
2021/08/30 04:50:50;;;;;;;;;;;12.70;99.90;;;;;;5021989;28;19925;-74
2021/08/30 04:53:22;;;;;;;;;;;12.70;99.90;;;;;;5028780;28;19939;-75
2021/08/30 04:55:54;;;;;;;;;;;12.70;99.90;;;;;;5035843;28;19925;-75
2021/08/30 04:58:21;;;;;;;;;;;12.60;99.90;;;;;;5015375;28;20475;-74
2021/08/30 05:00:48;;;;;;;;;;;12.60;99.90;;;;;;4998855;28;20039;-74
2021/08/30 05:03:19;;;;;;;;;;;12.60;99.90;;;;;;5016408;28;19968;-74
2021/08/30 05:05:46;;;;;;;;;;;12.60;99.90;;;;;;5032586;28;19925;-74
2021/08/30 05:08:18;;;;;;;;;;;12.60;99.90;;;;;;5016191;28;20011;-74
2021/08/30 05:10:50;;;;;;;;;;;12.60;99.90;;;;;;5033057;28;19925;-74
2021/08/30 05:13:17;;;;;;;;;;;12.70;99.90;;;;;;5015166;28;19925;-74
2021/08/30 05:15:43;;;;;;;;;;;12.70;99.90;;;;;;5014768;28;20019;-73
2021/08/30 05:18:10;;;;;;;;;;;12.70;99.90;;;;;;5015057;28;20019;-76
2021/08/30 05:20:37;;;;;;;;;;;12.70;99.90;;;;;;4998557;28;19961;-74
2021/08/30 05:23:08;;;;;;;;;;;12.70;99.90;;;;;;5014833;28;19925;-74
2021/08/30 05:25:35;;;;;;;;;;;12.60;99.90;;;;;;5014821;28;20343;-74
2021/08/30 05:28:07;;;;;;;;;;;12.60;99.90;;;;;;5016713;28;20499;-74
2021/08/30 05:30:38;;;;;;;;;;;12.70;99.90;;;;;;4996265;28;20020;-74
2021/08/30 05:33:05;;;;;;;;;;;12.60;99.90;;;;;;5015041;28;19964;-74
2021/08/30 05:35:32;;;;;;;;;;;12.70;99.90;;;;;;5015252;28;19971;-74
2021/08/30 05:37:58;;;;;;;;;;;12.70;99.90;;;;;;4999050;28;19968;-74
2021/08/30 05:40:30;;;;;;;;;;;12.70;99.90;;;;;;5016218;28;19932;-74
2021/08/30 05:42:57;;;;;;;;;;;12.70;99.90;;;;;;5015280;28;20012;-74
2021/08/30 05:45:23;;;;;;;;;;;12.70;99.90;;;;;;4998632;28;20031;-74
2021/08/30 05:47:55;;;;;;;;;;;12.70;99.90;;;;;;5015167;28;19929;-74
2021/08/30 05:50:22;;;;;;;;;;;12.80;99.90;;;;;;4998279;28;20368;-74
2021/08/30 05:52:48;;;;;;;;;;;12.80;99.90;;;;;;5014660;28;19959;-74
2021/08/30 05:55:22;;;;;;;;;;;12.90;99.90;;;;;;5015682;28;20382;-74
2021/08/30 05:57:48;;;;;;;;;;;12.90;99.90;;;;;;5014912;28;20024;-74
2021/08/30 06:00:20;;;;;;;;;;;12.90;99.90;;;;;;5015014;28;20027;-74
2021/08/30 06:02:47;;;;;;;;;;;13.00;99.90;;;;;;5015442;28;20008;-74
2021/08/30 06:05:19;;;;;;;;;;;13.00;99.90;;;;;;4999114;28;19925;-74
2021/08/30 06:07:45;;;;;;;;;;;13.00;99.90;;;;;;5015675;28;20468;-74
2021/08/30 06:10:14;;;;;;;;;;;13.00;99.90;;;;;;5015524;28;20024;-74
2021/08/30 06:12:40;;;;;;;;;;;13.00;99.90;;;;;;5014587;28;19967;-74
2021/08/30 06:15:12;;;;;;;;;;;13.00;99.90;;;;;;5013382;28;19931;-73
2021/08/30 06:17:39;;;;;;;;;;;13.00;99.90;;;;;;5007710;28;20032;-74
2021/08/30 06:20:06;;;;;;;;;;;13.10;99.90;;;;;;5029199;28;19959;-74
2021/08/30 06:22:33;;;;;;;;;;;13.00;99.90;;;;;;5030642;28;20015;-73
2021/08/30 06:24:59;;;;;;;;;;;13.00;99.90;;;;;;5012819;28;19979;-74
2021/08/30 06:27:27;;;;;;;;;;;13.00;99.90;;;;;;5010212;28;20023;-73
2021/08/30 06:29:53;;;;;;;;;;;13.00;99.90;;;;;;5022274;28;20028;-73
2021/08/30 06:32:25;;;;;;;;;;;12.90;99.90;;;;;;5012141;28;20165;-73
2021/08/30 06:34:52;;;;;;;;;;;12.90;99.90;;;;;;4991802;28;20404;-74
2021/08/30 06:37:18;;;;;;;;;;;13.00;99.90;;;;;;5031600;28;19987;-74
2021/08/30 06:39:50;;;;;;;;;;;12.90;99.90;;;;;;5029566;28;20033;-74
2021/08/30 06:42:22;;;;;;;;;;;13.00;99.90;;;;;;4994814;28;19926;-74
2021/08/30 06:44:48;;;;;;;;;;;13.00;99.90;;;;;;4994336;28;20332;-73
2021/08/30 06:47:15;;;;;;;;;;;13.10;99.90;;;;;;4999710;28;19965;-74
2021/08/30 06:49:42;;;;;;;;;;;13.00;99.90;;;;;;5006662;28;20000;-73
2021/08/30 06:52:08;;;;;;;;;;;13.10;99.90;;;;;;5007553;28;20024;-73
2021/08/30 06:54:35;;;;;;;;;;;13.10;99.90;;;;;;5013331;28;20035;-74
2021/08/30 06:57:07;;;;;;;;;;;13.20;99.90;;;;;;4994043;28;19979;-73
2021/08/30 06:59:34;;;;;;;;;;;13.20;99.90;;;;;;5015909;28;20024;-73
2021/08/30 07:02:05;;;;;;;;;;;13.20;99.90;;;;;;4992362;28;20511;-73
2021/08/30 07:04:37;;;;;;;;;;;13.20;99.90;;;;;;5013676;28;20023;-73
2021/08/30 07:07:04;;;;;;;;;;;13.20;99.90;;;;;;5010023;28;20011;-73
2021/08/30 07:09:30;;;;;;;;;;;13.20;99.90;;;;;;5015434;28;20299;-73
2021/08/30 07:11:57;;;;;;;;;;;13.20;99.90;;;;;;5015383;28;20032;-73
2021/08/30 07:14:24;;;;;;;;;;;13.30;99.90;;;;;;5010820;28;19987;-73
2021/08/30 07:16:50;;;;;;;;;;;13.30;99.90;;;;;;5007826;28;20008;-74
2021/08/30 07:19:17;;;;;;;;;;;13.40;99.90;;;;;;5012930;28;20011;-75
2021/08/30 07:21:43;;;;;;;;;;;13.30;99.90;;;;;;5010840;28;19925;-75
2021/08/30 07:24:10;;;;;;;;;;;13.30;99.90;;;;;;4996619;28;19931;-73
2021/08/30 07:26:37;;;;;;;;;;;13.40;99.90;;;;;;4997016;28;19931;-74
2021/08/30 07:29:04;;;;;;;;;;;13.40;99.90;;;;;;5041351;28;19980;-74
2021/08/30 07:31:37;;;;;;;;;;;13.40;99.90;;;;;;5012911;28;19933;-74
2021/08/30 07:34:04;;;;;;;;;;;13.40;99.90;;;;;;4991995;28;19979;-74
2021/08/30 07:36:30;;;;;;;;;;;13.40;99.90;;;;;;5011349;28;19925;-74
2021/08/30 07:39:00;;;;;;;;;;;13.40;99.90;;;;;;5010772;28;19925;-74
2021/08/30 07:41:32;;;;;;;;;;;13.40;99.90;;;;;;5009845;28;19940;-74
2021/08/30 07:43:58;;;;;;;;;;;13.40;99.90;;;;;;4978788;28;20028;-76
2021/08/30 07:46:26;;;;;;;;;;;13.40;99.90;;;;;;5009884;28;20436;-74
2021/08/30 07:48:57;;;;;;;;;;;13.40;99.90;;;;;;5016366;28;19931;-75
2021/08/30 07:51:24;;;;;;;;;;;13.40;99.90;;;;;;5013073;28;20363;-75
2021/08/30 07:53:51;;;;;;;;;;;13.40;99.90;;;;;;5009867;28;19947;-74
2021/08/30 07:56:18;;;;;;;;;;;13.40;99.90;;;;;;4991268;28;19956;-74
2021/08/30 07:58:49;;;;;;;;;;;13.30;99.90;;;;;;5003774;28;20281;-75
2021/08/30 08:01:21;;;;;;;;;;;13.30;99.90;;;;;;5011154;28;20012;-74
2021/08/30 08:03:52;;;;;;;;;;;13.30;99.90;;;;;;5010568;28;20013;-73
2021/08/30 08:06:24;;;;;;;;;;;13.20;99.90;;;;;;5015387;28;19925;-74
2021/08/30 08:08:56;;;;;;;;;;;13.20;99.90;;;;;;5016584;28;19952;-75
2021/08/30 08:11:22;;;;;;;;;;;13.20;99.90;;;;;;5013958;28;19964;-73
2021/08/30 08:13:49;;;;;;;;;;;13.10;99.90;;;;;;5015580;28;19978;-75
2021/08/30 08:16:21;;;;;;;;;;;13.10;99.90;;;;;;4999617;28;19929;-74
2021/08/30 08:18:53;;;;;;;;;;;13.10;99.90;;;;;;5000133;28;19925;-73
2021/08/30 08:21:23;;;;;;;;;;;13.10;99.90;;;;;;5015933;28;20012;-73
2021/08/30 08:23:50;;;;;;;;;;;13.00;99.90;;;;;;5029626;28;19949;-74
2021/08/30 08:26:22;;;;;;;;;;;13.00;99.90;;;;;;5034782;28;19984;-73
2021/08/30 08:28:49;;;;;;;;;;;13.00;99.90;;;;;;5016444;28;19960;-73
2021/08/30 08:31:21;;;;;;;;;;;13.00;99.90;;;;;;5027342;28;19932;-73
2021/08/30 08:33:53;;;;;;;;;;;13.00;99.90;;;;;;5000795;28;20021;-74
2021/08/30 08:36:26;;;;;;;;;;;13.00;99.90;;;;;;5013852;28;19932;-73
2021/08/30 08:38:53;;;;;;;;;;;13.10;99.90;;;;;;5029981;28;20415;-73
2021/08/30 08:41:24;;;;;;;;;;;13.10;99.90;;;;;;5012468;28;20360;-74
2021/08/30 08:43:56;;;;;;;;;;;13.10;99.90;;;;;;5016387;28;20414;-74
2021/08/30 08:46:28;;;;;;;;;;;13.20;99.90;;;;;;5015558;28;19931;-74
2021/08/30 08:48:56;;;;;;;;;;;13.20;99.90;;;;;;5019083;28;19949;-74
2021/08/30 08:51:29;;;;;;;;;;;13.20;99.90;;;;;;5015687;28;19925;-74
2021/08/30 08:53:55;;;;;;;;;;;13.30;99.90;;;;;;5031959;28;19996;-74
2021/08/30 08:56:26;;;;;;;;;;;13.30;99.90;;;;;;5016335;28;20474;-73
2021/08/30 08:58:53;;;;;;;;;;;13.30;99.90;;;;;;5018038;28;20019;-73
2021/08/30 09:01:24;;;;;;;;;;;13.30;99.90;;;;;;5002340;28;20358;-74
2021/08/30 09:03:56;;;;;;;;;;;13.30;99.90;;;;;;5016888;28;20417;-74
2021/08/30 09:06:42;;;;;;;;;;;13.30;99.90;;;;;;5016122;28;20365;-74
2021/08/30 09:09:15;;;;;;;;;;;13.40;99.90;;;;;;5015699;28;19931;-73
2021/08/30 09:11:58;;;;;;;;;;;13.50;99.90;;;;;;5033672;28;20017;-73
2021/08/30 09:14:32;;;;;;;;;;;13.60;99.90;;;;;;5000347;28;20020;-74
2021/08/30 09:17:07;;;;;;;;;;;13.60;99.90;;;;;;5015423;28;20035;-73
2021/08/30 09:19:39;;;;;;;;;;;13.70;99.90;;;;;;5016667;28;20372;-74
2021/08/30 09:22:11;;;;;;;;;;;13.70;99.90;;;;;;4999878;28;19949;-74
2021/08/30 09:24:43;;;;;;;;;;;13.70;99.90;;;;;;5032694;28;19925;-74
2021/08/30 09:27:16;;;;;;;;;;;13.80;99.90;;;;;;4998838;28;19940;-74
2021/08/30 09:29:48;;;;;;;;;;;13.90;99.90;;;;;;4988197;28;19932;-73
2021/08/30 09:32:15;;;;;;;;;;;14.00;99.90;;;;;;5033067;28;19957;-74
2021/08/30 09:34:46;;;;;;;;;;;14.10;99.90;;;;;;5016025;28;19931;-74
2021/08/30 09:37:17;;;;;;;;;;;14.20;99.90;;;;;;5028809;28;19971;-74
2021/08/30 09:39:45;;;;;;;;;;;14.30;99.90;;;;;;5012869;28;20028;-73
2021/08/30 09:42:17;;;;;;;;;;;14.40;99.90;;;;;;5014076;28;19931;-74
2021/08/30 09:44:43;;;;;;;;;;;14.50;99.90;;;;;;4997256;28;19968;-73
2021/08/30 09:47:22;;;;;;;;;;;14.60;99.90;;;;;;5006093;28;19932;-74
2021/08/30 09:49:55;;;;;;;;;;;14.70;99.90;;;;;;5029769;28;19931;-74
2021/08/30 09:52:28;;;;;;;;;;;14.90;99.90;;;;;;5014179;28;20307;-73
2021/08/30 09:54:59;;;;;;;;;;;15.10;99.90;;;;;;4997387;28;19935;-74
2021/08/30 09:57:31;;;;;;;;;;;15.30;99.90;;;;;;5013764;28;20016;-73
2021/08/30 09:59:59;;;;;;;;;;;15.50;99.90;;;;;;5013284;28;19979;-73
2021/08/30 10:02:33;;;;;;;;;;;15.70;99.90;;;;;;5031365;28;19929;-74
2021/08/30 10:05:05;;;;;;;;;;;15.70;99.90;;;;;;5026712;28;20024;-73
2021/08/30 10:07:39;;;;;;;;;;;15.70;99.90;;;;;;5001765;28;19935;-71
2021/08/30 10:10:06;;;;;;;;;;;15.70;99.90;;;;;;5003379;28;19925;-75
2021/08/30 10:12:38;;;;;;;;;;;15.70;99.90;;;;;;5027510;28;20299;-75
2021/08/30 10:15:05;;;;;;;;;;;15.90;99.90;;;;;;5013006;28;19931;-75
2021/08/30 10:17:45;;;;;;;;;;;16.20;99.90;;;;;;5017461;28;20342;-75
2021/08/30 10:20:18;;;;;;;;;;;16.30;99.90;;;;;;5010257;28;19933;-75
2021/08/30 10:23:03;;;;;;;;;;;16.30;99.90;;;;;;4994153;28;20012;-75
2021/08/30 10:25:42;;;;;;;;;;;16.40;99.90;;;;;;5025228;28;19925;-76
2021/08/30 10:28:14;;;;;;;;;;;16.40;99.90;;;;;;5021125;28;19925;-75
2021/08/30 10:30:53;;;;;;;;;;;16.30;99.90;;;;;;5002571;28;19936;-75
2021/08/30 10:33:24;;;;;;;;;;;16.30;99.90;;;;;;5018241;28;19932;-75
2021/08/30 10:35:51;;;;;;;;;;;16.20;99.90;;;;;;4992562;28;20379;-75
2021/08/30 10:38:23;;;;;;;;;;;16.10;99.90;;;;;;5018693;28;20285;-75
2021/08/30 10:40:57;;;;;;;;;;;16.00;99.90;;;;;;5010152;28;19925;-74
2021/08/30 10:43:28;;;;;;;;;;;15.90;99.90;;;;;;5002183;28;20027;-75
2021/08/30 10:46:02;;;;;;;;;;;15.90;99.90;;;;;;5011432;28;20395;-75
2021/08/30 10:48:36;;;;;;;;;;;15.80;99.90;;;;;;5013154;28;20454;-74
2021/08/30 10:51:14;;;;;;;;;;;15.70;99.90;;;;;;5013352;28;20011;-74
2021/08/30 10:53:55;;;;;;;;;;;15.60;99.90;;;;;;5013376;28;20370;-74
2021/08/30 10:56:23;;;;;;;;;;;15.40;99.90;;;;;;5013643;28;19929;-75
2021/08/30 10:58:58;;;;;;;;;;;15.30;99.90;;;;;;5015328;28;19925;-75
2021/08/30 11:01:30;;;;;;;;;;;15.30;99.90;;;;;;5013126;28;19925;-75
2021/08/30 11:03:57;;;;;;;;;;;15.20;99.90;;;;;;5013627;28;19964;-72
2021/08/30 11:06:24;;;;;;;;;;;15.30;99.90;;;;;;4996248;28;20027;-72
2021/08/30 11:08:56;;;;;;;;;;;15.30;99.90;;;;;;5013825;28;20023;-72
2021/08/30 11:11:24;;;;;;;;;;;15.40;99.90;;;;;;5013057;28;19929;-73
2021/08/30 11:13:56;;;;;;;;;;;15.60;99.90;;;;;;5007759;28;19960;-72
2021/08/30 11:16:29;;;;;;;;;;;15.90;99.90;;;;;;5010405;28;20032;-72
2021/08/30 11:18:55;;;;;;;;;;;16.00;99.90;;;;;;5016401;28;20016;-72
2021/08/30 11:21:33;;;;;;;;;;;16.00;99.90;;;;;;5022247;28;19925;-73
2021/08/30 11:24:00;;;;;;;;;;;16.10;99.90;;;;;;5014380;28;19929;-73
2021/08/30 11:26:27;;;;;;;;;;;16.20;99.90;;;;;;5011587;28;20383;-76
2021/08/30 11:28:57;;;;;;;;;;;16.20;99.90;;;;;;5016303;28;19952;-76
2021/08/30 11:31:27;;;;;;;;;;;16.40;99.90;;;;;;5016462;28;20404;-76
2021/08/30 11:33:53;;;;;;;;;;;16.50;99.90;;;;;;5034391;28;19967;-73
2021/08/30 11:36:20;;;;;;;;;;;16.50;99.90;;;;;;5015816;28;20023;-73
2021/08/30 11:38:54;;;;;;;;;;;16.70;99.90;;;;;;5012378;28;20365;-72
2021/08/30 11:41:21;;;;;;;;;;;16.80;99.90;;;;;;5009114;28;20036;-73
2021/08/30 11:44:03;;;;;;;;;;;16.90;99.90;;;;;;5018102;28;19925;-72
2021/08/30 11:46:45;;;;;;;;;;;17.00;99.90;;;;;;4999471;28;20295;-74
2021/08/30 11:49:17;;;;;;;;;;;17.10;99.90;;;;;;5021810;28;19939;-73
2021/08/30 11:51:45;;;;;;;;;;;17.30;99.90;;;;;;5012491;28;20019;-73
2021/08/30 11:54:16;;;;;;;;;;;17.40;99.90;;;;;;4993440;28;19925;-73
2021/08/30 11:56:52;;;;;;;;;;;17.50;99.90;;;;;;5012291;28;19925;-74
2021/08/30 11:59:25;;;;;;;;;;;17.60;99.90;;;;;;5016133;28;20027;-74
2021/08/30 12:01:52;;;;;;;;;;;17.70;99.90;;;;;;5019430;28;20020;-73
2021/08/30 12:04:18;;;;;;;;;;;18.00;99.90;;;;;;4998719;28;19975;-73
2021/08/30 12:06:52;;;;;;;;;;;18.10;99.90;;;;;;5014111;28;20023;-74
2021/08/30 12:09:24;;;;;;;;;;;18.00;99.90;;;;;;5016315;28;19925;-73
2021/08/30 12:11:53;;;;;;;;;;;17.80;99.90;;;;;;5014401;28;19929;-73
2021/08/30 12:14:23;;;;;;;;;;;17.60;99.90;;;;;;5010813;28;19969;-73
2021/08/30 12:16:58;;;;;;;;;;;17.40;99.90;;;;;;5014551;28;19952;-75
2021/08/30 12:19:26;;;;;;;;;;;17.40;99.90;;;;;;5012847;28;20027;-74
2021/08/30 12:21:54;;;;;;;;;;;17.30;99.90;;;;;;5013530;28;19932;-74
2021/08/30 12:24:21;;;;;;;;;;;17.30;99.90;;;;;;5015638;28;20012;-74
2021/08/30 12:26:49;;;;;;;;;;;17.30;99.90;;;;;;5034245;28;20463;-75
2021/08/30 12:29:20;;;;;;;;;;;17.40;99.90;;;;;;5017694;28;19924;-75
2021/08/30 12:31:51;;;;;;;;;;;17.50;99.90;;;;;;5034469;28;19972;-73
2021/08/30 12:34:21;;;;;;;;;;;17.70;99.90;;;;;;5034445;28;20075;-75
2021/08/30 12:36:48;;;;;;;;;;;17.90;99.90;;;;;;5031567;28;20047;-74
2021/08/30 12:39:15;;;;;;;;;;;18.20;99.90;;;;;;5018535;28;19929;-74
2021/08/30 12:41:42;;;;;;;;;;;18.20;99.90;;;;;;5018553;28;20016;-74
2021/08/30 12:44:13;;;;;;;;;;;18.20;99.90;;;;;;5052799;28;20387;-75
2021/08/30 12:46:45;;;;;;;;;;;18.30;99.90;;;;;;5035342;28;20035;-75
2021/08/30 12:49:12;;;;;;;;;;;18.40;99.90;;;;;;5052764;28;19931;-75
2021/08/30 12:51:38;;;;;;;;;;;18.40;99.90;;;;;;5010807;28;20024;-76
2021/08/30 12:54:05;;;;;;;;;;;18.50;99.90;;;;;;5016926;28;19964;-75
2021/08/30 12:56:32;;;;;;;;;;;18.40;99.90;;;;;;5008712;28;19987;-75
2021/08/30 12:59:03;;;;;;;;;;;18.20;99.90;;;;;;5012579;28;19925;-75
2021/08/30 13:01:35;;;;;;;;;;;18.20;99.90;;;;;;4998355;28;19925;-75
2021/08/30 13:04:02;;;;;;;;;;;18.20;99.90;;;;;;5015949;28;19969;-75
2021/08/30 13:06:28;;;;;;;;;;;18.20;99.90;;;;;;5015493;28;20036;-75
2021/08/30 13:09:00;;;;;;;;;;;18.20;99.90;;;;;;5033254;28;19925;-76
2021/08/30 13:11:27;;;;;;;;;;;18.20;99.90;;;;;;5015968;28;20362;-75
2021/08/30 13:13:58;;;;;;;;;;;18.10;99.90;;;;;;5000049;28;20407;-75
2021/08/30 13:16:28;;;;;;;;;;;17.90;99.90;;;;;;4999257;28;19948;-75
2021/08/30 13:18:55;;;;;;;;;;;17.80;99.90;;;;;;4999555;28;20016;-75
2021/08/30 13:21:27;;;;;;;;;;;17.70;99.90;;;;;;5016364;28;20028;-74
2021/08/30 13:23:53;;;;;;;;;;;17.70;99.90;;;;;;5015619;28;19925;-75
2021/08/30 13:26:25;;;;;;;;;;;17.70;99.90;;;;;;5016092;28;20023;-75
2021/08/30 13:28:52;;;;;;;;;;;17.60;99.90;;;;;;5015190;28;20015;-75
2021/08/30 13:31:19;;;;;;;;;;;17.60;99.90;;;;;;5015295;28;20031;-75
2021/08/30 13:33:50;;;;;;;;;;;17.60;99.90;;;;;;4999539;28;19931;-75
2021/08/30 13:36:17;;;;;;;;;;;17.60;99.90;;;;;;5014965;28;20020;-76
2021/08/30 13:38:49;;;;;;;;;;;17.60;99.90;;;;;;5025642;28;20372;-75
2021/08/30 13:41:21;;;;;;;;;;;17.70;99.90;;;;;;5011021;28;20503;-75
2021/08/30 13:43:52;;;;;;;;;;;17.70;99.90;;;;;;4996452;28;20370;-75
2021/08/30 13:46:24;;;;;;;;;;;17.80;99.90;;;;;;5016700;28;19931;-74
2021/08/30 13:48:56;;;;;;;;;;;17.80;99.90;;;;;;5020560;28;19925;-75
2021/08/30 13:51:23;;;;;;;;;;;17.80;99.90;;;;;;5014285;28;20020;-74
2021/08/30 13:53:49;;;;;;;;;;;17.80;99.90;;;;;;5013667;28;20011;-75
2021/08/30 13:56:16;;;;;;;;;;;17.80;99.90;;;;;;4994316;28;20020;-75
2021/08/30 13:58:47;;;;;;;;;;;17.80;99.90;;;;;;5012520;28;20019;-75
2021/08/30 14:01:14;;;;;;;;;;;17.80;99.90;;;;;;5004908;28;20348;-75
2021/08/30 14:03:46;;;;;;;;;;;17.70;99.90;;;;;;5031077;28;19925;-75
2021/08/30 14:06:18;;;;;;;;;;;17.60;99.90;;;;;;5014946;28;19926;-75
2021/08/30 14:08:44;;;;;;;;;;;17.60;99.90;;;;;;5009362;28;20012;-75
2021/08/30 14:11:16;;;;;;;;;;;17.50;99.90;;;;;;5000097;28;19936;-75
2021/08/30 14:13:43;;;;;;;;;;;17.60;99.90;;;;;;5012677;28;20024;-75
2021/08/30 14:16:15;;;;;;;;;;;17.50;99.90;;;;;;4999652;28;20315;-75
2021/08/30 14:18:47;;;;;;;;;;;17.50;99.90;;;;;;5015523;28;19932;-75
2021/08/30 14:21:19;;;;;;;;;;;17.50;99.90;;;;;;5013888;28;20025;-75
2021/08/30 14:23:51;;;;;;;;;;;17.50;99.90;;;;;;5016193;28;19931;-75
2021/08/30 14:26:17;;;;;;;;;;;17.80;99.90;;;;;;5029676;28;19971;-75
2021/08/30 14:28:50;;;;;;;;;;;18.30;99.90;;;;;;5012702;28;20431;-75
2021/08/30 14:31:17;;;;;;;;;;;18.90;99.90;;;;;;5030741;28;19952;-75
2021/08/30 14:33:43;;;;;;;;;;;19.40;99.90;;;;;;4998282;28;19932;-75
2021/08/30 14:36:11;;;;;;;;;;;19.50;99.90;;;;;;5031346;28;19932;-75